Letzte 24h
Datum & Zeit Temp. Luft-
feuchte
Wind Nieder-
schlag
Luftdruck Tendenz
IN OUT IN OUT Richtung Min. Max.
2020.06.03 21:55 18.4 °C 12.6 °C 62% 97% SSO 156 ° 2 km/h 11 km/h 0.0 mm 1007.90 hPa langsam fallend
22:55 17.8 °C 11.6 °C 61% 98% SW 214 ° 0 km/h 4 km/h 0.0 mm 1007.30 hPa langsam fallend
23:55 17.3 °C 12.0 °C 61% 97% SO 135 ° 0 km/h 7 km/h 0.0 mm 1006.90 hPa langsam fallend
2020.06.04 00:55 16.9 °C 12.3 °C 62% 93% WNW 297 ° 6 km/h 15 km/h 0.0 mm 1006.80 hPa langsam fallend
01:55 16.6 °C 11.1 °C 62% 96% NW 322 ° 3 km/h 16 km/h 0.0 mm 1006.10 hPa langsam fallend
02:55 16.3 °C 11.5 °C 62% 98% SW 234 ° 0 km/h 9 km/h 0.0 mm 1005.10 hPa fallend
03:55 16.2 °C 12.3 °C 63% 90% WNW 285 ° 2 km/h 11 km/h 0.0 mm 1004.40 hPa fallend
04:55 15.9 °C 10.5 °C 63% 95% WNW 297 ° 1 km/h 9 km/h 0.0 mm 1003.90 hPa fallend
05:55 15.7 °C 12.3 °C 63% 95% SO 135 ° 1 km/h 9 km/h 0.0 mm 1003.40 hPa fallend
06:55 16.2 °C 15.1 °C 63% 81% WNW 295 ° 1 km/h 7 km/h 0.0 mm 1003.40 hPa langsam fallend
07:55 17.3 °C 14.8 °C 65% 84% WNW 302 ° 2 km/h 6 km/h 0.0 mm 1003.50 hPa langsam fallend
08:55 18.4 °C 18.5 °C 65% 71% N 8 ° 2 km/h 6 km/h 0.0 mm 1003.40 hPa gleichbleibend
09:55 19.9 °C 18.7 °C 65% 74% NW 320 ° 3 km/h 9 km/h 0.0 mm 1003.50 hPa langsam steigend
10:55 21.2 °C 19.5 °C 63% 73% NNO 25 ° 3 km/h 7 km/h 0.0 mm 1003.10 hPa langsam fallend
11:55 22.1 °C 22.3 °C 61% 60% NO 54 ° 5 km/h 12 km/h 0.0 mm 1002.90 hPa langsam fallend
12:55 23.6 °C 23.7 °C 61% 50% O 83 ° 9 km/h 18 km/h 0.0 mm 1002.40 hPa langsam fallend
13:55 24.9 °C 24.2 °C 58% 50% O 88 ° 9 km/h 16 km/h 0.0 mm 1002.10 hPa langsam fallend
14:55 25.5 °C 22.3 °C 55% 56% ONO 77 ° 9 km/h 17 km/h 0.0 mm 1001.70 hPa langsam fallend
15:55 25.2 °C 22.8 °C 53% 56% O 85 ° 10 km/h 19 km/h 0.0 mm 1001.10 hPa langsam fallend
16:55 24.9 °C 20.1 °C 55% 71% O 88 ° 5 km/h 13 km/h 0.0 mm 1000.70 hPa langsam fallend
17:55 23.8 °C 20.4 °C 57% 71% OSO 116 ° 2 km/h 10 km/h 0.0 mm 1000.00 hPa fallend
18:55 23.3 °C 20.8 °C 59% 75% SSO 150 ° 1 km/h 6 km/h 0.0 mm 999.50 hPa fallend
19:55 22.7 °C 19.6 °C 59% 83% S 180 ° 0 km/h 3 km/h 0.0 mm 999.00 hPa fallend
20:55 22.0 °C 18.0 °C 58% 88% O 90 ° 0 km/h 3 km/h 0.0 mm 999.10 hPa langsam fallend

 

Verlauf: letzte 24h
WIND   Windrose
(Klicke ins Bild, um den Hintergrund abzuschalten)
WIND   Windverkauf 2.5h
TEMP   Temperatur 2.5h
Druck   Luftdruck 2.5h
Regen   Luftdruck 2.5h